createdAt,value
2022-11-19T00:00:01.662Z,91066.50
2022-11-19T00:02:36.908Z,91061.91
2022-11-19T00:05:09.271Z,91067.00
2022-11-19T00:07:42.311Z,91081.06
2022-11-19T00:10:14.734Z,91072.13
2022-11-19T00:12:55.467Z,91072.94
2022-11-19T00:15:27.906Z,91079.94
2022-11-19T00:18:00.250Z,91109.84
2022-11-19T00:20:33.836Z,91104.13
2022-11-19T00:23:06.804Z,91103.09
2022-11-19T00:25:39.100Z,91092.59
2022-11-19T00:28:11.382Z,91091.63
2022-11-19T00:30:48.461Z,91091.78
2022-11-19T00:33:21.210Z,91096.59
2022-11-19T00:35:55.344Z,91094.25
2022-11-19T00:38:29.342Z,91104.47
2022-11-19T00:41:06.354Z,91097.06
2022-11-19T00:43:47.934Z,91094.88
2022-11-19T00:46:21.948Z,91105.75
2022-11-19T00:48:55.545Z,91095.34
2022-11-19T00:51:29.710Z,91101.81
2022-11-19T00:54:02.800Z,91107.03
2022-11-19T00:56:35.265Z,91120.47
2022-11-19T00:59:07.613Z,91108.44
2022-11-19T01:01:40.009Z,91098.66
2022-11-19T01:04:12.414Z,91092.59
2022-11-19T01:06:45.045Z,91102.22
2022-11-19T01:09:18.413Z,91106.66
2022-11-19T01:11:50.915Z,91105.41
2022-11-19T01:14:23.447Z,91099.88
2022-11-19T01:16:55.851Z,91101.28
2022-11-19T01:19:28.189Z,91112.63
2022-11-19T01:22:00.496Z,91107.72
2022-11-19T01:24:33.602Z,91100.97
2022-11-19T01:27:05.962Z,91105.13
2022-11-19T01:29:38.308Z,91114.66
2022-11-19T01:32:10.621Z,91112.66
2022-11-19T01:34:42.930Z,91114.66
2022-11-19T01:37:15.290Z,91117.19
2022-11-19T01:39:48.332Z,91103.16
2022-11-19T01:42:49.026Z,91114.38
2022-11-19T01:45:34.113Z,91144.25
2022-11-19T01:48:11.439Z,91126.59
2022-11-19T01:50:48.053Z,91110.19
2022-11-19T01:53:21.964Z,91114.25
2022-11-19T01:55:56.086Z,91113.28
2022-11-19T01:58:28.447Z,91116.84
2022-11-19T02:01:00.869Z,91119.88
2022-11-19T02:03:34.422Z,91112.81
2022-11-19T02:06:08.145Z,91112.06
2022-11-19T02:08:42.310Z,91118.19
2022-11-19T02:11:59.770Z,91116.31
2022-11-19T02:15:10.725Z,91111.88
2022-11-19T02:18:04.764Z,91114.03
2022-11-19T02:21:05.932Z,91120.94
2022-11-19T02:24:00.353Z,91123.22
2022-11-19T02:27:05.260Z,91128.44
2022-11-19T02:30:01.540Z,91131.50
2022-11-19T02:32:38.999Z,91131.38
2022-11-19T02:35:21.733Z,91134.13
2022-11-19T02:37:59.352Z,91136.44
2022-11-19T02:40:39.099Z,91141.44
2022-11-19T02:43:15.351Z,91146.50
2022-11-19T02:45:52.434Z,91135.34
2022-11-19T02:48:30.486Z,91147.84
2022-11-19T02:51:07.764Z,91156.13
2022-11-19T02:53:40.128Z,91159.16
2022-11-19T02:56:13.814Z,91157.91
2022-11-19T02:59:09.491Z,91163.72
2022-11-19T03:02:03.967Z,91179.50
2022-11-19T03:04:36.302Z,91171.19
2022-11-19T03:07:12.294Z,91183.50
2022-11-19T03:09:49.445Z,91184.19
2022-11-19T03:12:27.971Z,91185.41
2022-11-19T03:15:22.074Z,91187.72
2022-11-19T03:18:04.006Z,91187.09
2022-11-19T03:20:40.352Z,91196.16
2022-11-19T03:23:20.988Z,91194.72
2022-11-19T03:25:58.306Z,91198.88
2022-11-19T03:28:37.818Z,91195.19
2022-11-19T03:31:11.314Z,91205.63
2022-11-19T03:33:47.844Z,91201.94
2022-11-19T03:36:23.718Z,91206.53
2022-11-19T03:39:02.288Z,91216.00
2022-11-19T03:41:37.546Z,91213.09
2022-11-19T03:44:13.484Z,91216.56
2022-11-19T03:46:50.449Z,91220.09
2022-11-19T03:49:30.933Z,91223.13
2022-11-19T03:52:09.633Z,91220.66
2022-11-19T03:54:42.740Z,91212.28
2022-11-19T03:57:18.166Z,91234.75
2022-11-19T03:59:50.638Z,91234.28
2022-11-19T04:02:23.068Z,91241.81
2022-11-19T04:04:56.037Z,91237.03
2022-11-19T04:07:28.406Z,91231.50
2022-11-19T04:10:00.804Z,91252.38
2022-11-19T04:12:33.124Z,91243.91
2022-11-19T04:15:06.300Z,91258.94
2022-11-19T04:17:38.745Z,91257.06
2022-11-19T04:20:11.953Z,91253.41
2022-11-19T04:22:44.277Z,91246.78
2022-11-19T04:25:16.764Z,91252.44
2022-11-19T04:27:49.096Z,91246.78
2022-11-19T04:30:21.513Z,91252.00
2022-11-19T04:32:53.813Z,91250.63
2022-11-19T04:35:26.815Z,91253.66
2022-11-19T04:37:59.221Z,91271.16
2022-11-19T04:40:31.554Z,91277.75
2022-11-19T04:43:03.892Z,91282.22
2022-11-19T04:45:36.315Z,91287.56
2022-11-19T04:48:08.621Z,91289.09
2022-11-19T04:50:42.621Z,91289.28
2022-11-19T04:53:14.932Z,91295.28
2022-11-19T04:55:47.292Z,91298.97
2022-11-19T04:58:19.695Z,91302.00
2022-11-19T05:00:52.112Z,91311.06
2022-11-19T05:03:35.117Z,91317.66
2022-11-19T05:06:08.295Z,91318.88
2022-11-19T05:08:40.638Z,91323.22
2022-11-19T05:11:13.224Z,91310.22
2022-11-19T05:13:45.595Z,91332.91
2022-11-19T05:16:17.911Z,91338.44
2022-11-19T05:18:50.284Z,91340.72
2022-11-19T05:21:23.320Z,91349.31
2022-11-19T05:23:55.669Z,91349.00
2022-11-19T05:26:28.004Z,91347.00
2022-11-19T05:29:00.393Z,91343.78
2022-11-19T05:31:32.730Z,91350.38
2022-11-19T05:34:05.206Z,91350.53
2022-11-19T05:36:38.252Z,91344.34
2022-11-19T05:39:10.645Z,91356.34
2022-11-19T05:41:42.917Z,91362.19
2022-11-19T05:44:15.237Z,91371.56
2022-11-19T05:46:47.647Z,91377.44
2022-11-19T05:49:20.206Z,91386.69
2022-11-19T05:51:53.450Z,91393.00
2022-11-19T05:54:25.794Z,91396.03
2022-11-19T05:56:58.206Z,91391.91
2022-11-19T05:59:30.551Z,91385.63
2022-11-19T06:02:02.942Z,91397.88
2022-11-19T06:04:35.333Z,91386.22
2022-11-19T06:07:08.360Z,91400.47
2022-11-19T06:09:40.775Z,91396.34
2022-11-19T06:12:13.111Z,91412.91
2022-11-19T06:14:45.470Z,91421.31
2022-11-19T06:17:17.805Z,91417.47
2022-11-19T06:19:50.140Z,91427.44
2022-11-19T06:22:23.250Z,91439.72
2022-11-19T06:24:55.586Z,91446.91
2022-11-19T06:27:27.967Z,91446.91
2022-11-19T06:30:00.530Z,91454.75
2022-11-19T06:32:32.990Z,91451.19
2022-11-19T06:35:06.148Z,91451.81
2022-11-19T06:37:39.160Z,91456.75
2022-11-19T06:40:13.275Z,91452.28
2022-11-19T06:42:49.780Z,91461.19
2022-11-19T06:45:23.253Z,91465.03
2022-11-19T06:47:55.554Z,91471.47
2022-11-19T06:50:27.950Z,91474.81
2022-11-19T06:53:00.937Z,91482.34
2022-11-19T06:55:33.324Z,91488.47
2022-11-19T06:58:07.020Z,91488.31
2022-11-19T07:00:39.363Z,91481.56
2022-11-19T07:03:30.311Z,91486.31
2022-11-19T07:06:21.262Z,91494.44
2022-11-19T07:08:54.266Z,91491.38
2022-11-19T07:11:26.580Z,91491.50
2022-11-19T07:13:58.983Z,91494.44
2022-11-19T07:16:33.787Z,91496.91
2022-11-19T07:19:07.983Z,91492.31
2022-11-19T07:21:40.549Z,91504.84
2022-11-19T07:24:16.573Z,91502.25
2022-11-19T07:26:49.086Z,91493.66
2022-11-19T07:29:21.838Z,91500.56
2022-11-19T07:31:54.620Z,91503.75
2022-11-19T07:34:27.192Z,91503.56
2022-11-19T07:36:59.553Z,91501.41
2022-11-19T07:39:32.579Z,91495.69
2022-11-19T07:42:23.237Z,91502.28
2022-11-19T07:44:57.845Z,91497.47
2022-11-19T07:47:30.239Z,91502.22
2022-11-19T07:50:03.510Z,91513.41
2022-11-19T07:52:35.999Z,91508.78
2022-11-19T07:55:10.158Z,91494.22
2022-11-19T07:57:42.525Z,91516.91
2022-11-19T08:00:15.417Z,91509.59
2022-11-19T08:02:48.962Z,91519.47
2022-11-19T08:05:21.482Z,91526.19
2022-11-19T08:07:53.846Z,91524.47
2022-11-19T08:10:31.589Z,91538.25
2022-11-19T08:13:04.386Z,91529.13
2022-11-19T08:15:36.766Z,91523.53
2022-11-19T08:18:14.875Z,91535.03
2022-11-19T08:20:47.984Z,91540.72
2022-11-19T08:23:22.243Z,91541.78
2022-11-19T08:25:55.334Z,91537.50
2022-11-19T08:28:28.189Z,91527.78
2022-11-19T08:31:05.884Z,91532.34
2022-11-19T08:33:38.201Z,91534.28
2022-11-19T08:36:12.330Z,91531.84
2022-11-19T08:38:44.910Z,91531.50
2022-11-19T08:41:36.029Z,91540.38
2022-11-19T08:44:08.521Z,91549.50
2022-11-19T08:46:41.306Z,91551.31
2022-11-19T08:49:14.214Z,91538.53
2022-11-19T08:51:46.655Z,91539.81
2022-11-19T08:54:19.456Z,91551.00
2022-11-19T08:56:52.791Z,91541.94
2022-11-19T08:59:25.176Z,91557.88
2022-11-19T09:01:57.575Z,91542.06
2022-11-19T09:04:29.931Z,91548.59
2022-11-19T09:07:02.539Z,91556.31
2022-11-19T09:09:35.047Z,91566.28
2022-11-19T09:12:08.756Z,91567.41
2022-11-19T09:14:41.096Z,91568.44
2022-11-19T09:17:13.515Z,91578.69
2022-11-19T09:19:45.840Z,91574.06
2022-11-19T09:22:18.223Z,91568.63
2022-11-19T09:24:50.569Z,91564.06
2022-11-19T09:27:23.649Z,91556.88
2022-11-19T09:29:56.053Z,91553.03
2022-11-19T09:32:28.478Z,91553.75
2022-11-19T09:35:00.844Z,91547.66
2022-11-19T09:37:35.639Z,91541.22
2022-11-19T09:40:11.523Z,91537.91
2022-11-19T09:43:00.790Z,91522.94
2022-11-19T09:45:46.370Z,91520.44
2022-11-19T09:48:30.992Z,91494.38
2022-11-19T09:51:08.646Z,91489.69
2022-11-19T09:53:46.592Z,91484.34
2022-11-19T09:56:29.543Z,91478.78
2022-11-19T09:59:13.256Z,91479.19
2022-11-19T10:01:45.657Z,91483.03
2022-11-19T10:04:22.330Z,91481.94
2022-11-19T10:07:07.531Z,91483.81
2022-11-19T10:09:58.388Z,91467.28
2022-11-19T10:12:52.533Z,91478.88
2022-11-19T10:15:37.358Z,91496.78
2022-11-19T10:18:18.896Z,91481.69
2022-11-19T10:20:59.635Z,91496.00
2022-11-19T10:23:48.593Z,91476.44
2022-11-19T10:26:28.121Z,91501.72
2022-11-19T10:29:03.539Z,91509.63
2022-11-19T10:31:39.149Z,91493.84
2022-11-19T10:34:19.025Z,91492.56
2022-11-19T10:36:56.174Z,91498.22
2022-11-19T10:39:35.533Z,91481.78
2022-11-19T10:42:18.327Z,91486.03
2022-11-19T10:44:53.551Z,91481.28
2022-11-19T10:47:34.405Z,91467.53
2022-11-19T10:50:14.889Z,91481.59
2022-11-19T10:52:52.430Z,91468.84
2022-11-19T10:55:28.783Z,91479.50
2022-11-19T10:58:10.494Z,91484.66
2022-11-19T11:00:43.797Z,91479.22
2022-11-19T11:03:24.120Z,91467.59
2022-11-19T11:05:59.141Z,91488.84
2022-11-19T11:08:32.139Z,91483.13
2022-11-19T11:11:04.840Z,91481.22
2022-11-19T11:13:57.409Z,91472.66
2022-11-19T11:16:43.607Z,91477.09
2022-11-19T11:19:19.144Z,91478.94
2022-11-19T11:21:53.074Z,91482.63
2022-11-19T11:24:32.896Z,91479.88
2022-11-19T11:27:18.924Z,91475.75
2022-11-19T11:30:05.157Z,91469.97
2022-11-19T11:32:39.149Z,91462.53
2022-11-19T11:35:31.393Z,91465.81
2022-11-19T11:38:05.064Z,91464.19
2022-11-19T11:40:37.698Z,91456.44
2022-11-19T11:43:17.502Z,91445.28
2022-11-19T11:45:56.530Z,91456.84
2022-11-19T11:48:34.780Z,91461.69
2022-11-19T11:51:08.125Z,91458.44
2022-11-19T11:53:42.274Z,91458.78
2022-11-19T11:56:21.056Z,91457.88
2022-11-19T11:58:53.386Z,91453.13
2022-11-19T12:01:25.732Z,91465.66
2022-11-19T12:03:58.908Z,91460.03
2022-11-19T12:06:38.975Z,91468.63
2022-11-19T12:09:22.498Z,91456.16
2022-11-19T12:12:01.474Z,91447.44
2022-11-19T12:14:40.026Z,91448.56
2022-11-19T12:17:29.737Z,91455.28
2022-11-19T12:20:20.231Z,91446.13
2022-11-19T12:23:11.265Z,91453.72
2022-11-19T12:25:51.279Z,91455.59
2022-11-19T12:28:37.112Z,91452.13
2022-11-19T12:31:27.265Z,91452.25
2022-11-19T12:34:22.335Z,91460.63
2022-11-19T12:37:03.183Z,91462.03
2022-11-19T12:39:46.284Z,91455.94
2022-11-19T12:42:33.476Z,91448.13
2022-11-19T12:45:17.100Z,91453.44
2022-11-19T12:48:09.680Z,91461.53
2022-11-19T12:50:49.810Z,91458.72
2022-11-19T12:53:35.304Z,91465.22
2022-11-19T12:56:22.823Z,91458.16
2022-11-19T12:59:07.075Z,91469.34
2022-11-19T13:01:45.183Z,91463.09
2022-11-19T13:04:24.845Z,91462.75
2022-11-19T13:07:02.475Z,91465.66
2022-11-19T13:09:40.239Z,91462.97
2022-11-19T13:12:16.790Z,91460.41
2022-11-19T13:14:55.246Z,91470.09
2022-11-19T13:17:31.067Z,91478.81
2022-11-19T13:20:12.125Z,91476.66
2022-11-19T13:22:46.860Z,91475.63
2022-11-19T13:25:23.960Z,91473.22
2022-11-19T13:28:01.148Z,91479.22
2022-11-19T13:30:34.911Z,91483.53
2022-11-19T13:33:18.429Z,91470.22
2022-11-19T13:35:58.087Z,91476.66
2022-11-19T13:38:43.825Z,91483.53
2022-11-19T13:41:21.047Z,91472.59
2022-11-19T13:44:15.051Z,91449.25
2022-11-19T13:46:54.493Z,91477.34
2022-11-19T13:49:28.232Z,91469.56
2022-11-19T13:52:07.001Z,91466.47
2022-11-19T13:54:41.143Z,91473.13
2022-11-19T13:57:26.363Z,91476.34
2022-11-19T14:00:04.175Z,91483.19
2022-11-19T14:03:19.698Z,91480.88
2022-11-19T14:06:22.509Z,91485.19
2022-11-19T14:09:11.853Z,91489.13
2022-11-19T14:12:22.790Z,91495.31
2022-11-19T14:15:33.922Z,91495.56
2022-11-19T14:18:36.136Z,91494.81
2022-11-19T14:22:04.659Z,91493.78
2022-11-19T14:25:15.520Z,91483.31
2022-11-19T14:27:47.967Z,91471.63
2022-11-19T14:31:00.154Z,91487.41
2022-11-19T14:33:59.122Z,91489.13
2022-11-19T14:36:43.827Z,91469.06
2022-11-19T14:39:21.719Z,91489.97
2022-11-19T14:42:13.286Z,91479.09
2022-11-19T14:44:46.304Z,91470.97
2022-11-19T14:47:33.837Z,91480.13
2022-11-19T14:50:09.368Z,91472.00
2022-11-19T14:52:51.334Z,91478.38
2022-11-19T14:55:26.148Z,91470.97
2022-11-19T14:58:01.959Z,91460.91
2022-11-19T15:00:36.792Z,91463.34
2022-11-19T15:03:16.853Z,91460.53
2022-11-19T15:05:49.775Z,91478.94
2022-11-19T15:08:45.520Z,91465.53
2022-11-19T15:11:21.370Z,91468.81
2022-11-19T15:14:26.852Z,91473.31
2022-11-19T15:17:03.738Z,91479.63
2022-11-19T15:19:47.127Z,91485.72
2022-11-19T15:22:40.833Z,91493.69
2022-11-19T15:25:25.207Z,91487.31
2022-11-19T15:28:11.982Z,91481.38
2022-11-19T15:31:12.470Z,91493.47
2022-11-19T15:33:59.904Z,91481.84
2022-11-19T15:36:36.075Z,91482.25
2022-11-19T15:39:16.041Z,91476.25
2022-11-19T15:42:01.764Z,91474.91
2022-11-19T15:44:41.315Z,91463.91
2022-11-19T15:47:17.472Z,91471.91
2022-11-19T15:49:51.277Z,91466.13
2022-11-19T15:52:27.246Z,91453.94
2022-11-19T15:55:17.579Z,91460.38
2022-11-19T15:57:53.690Z,91471.25
2022-11-19T16:00:29.054Z,91464.59
2022-11-19T16:03:03.113Z,91465.03
2022-11-19T16:05:35.640Z,91470.91
2022-11-19T16:08:12.859Z,91468.75
2022-11-19T16:10:46.682Z,91477.34
2022-11-19T16:13:40.273Z,91476.47
2022-11-19T16:16:34.086Z,91473.16
2022-11-19T16:19:06.446Z,91482.59
2022-11-19T16:21:40.251Z,91473.88
2022-11-19T16:24:34.614Z,91479.88
2022-11-19T16:27:10.960Z,91499.22
2022-11-19T16:29:43.734Z,91493.81
2022-11-19T16:32:19.184Z,91484.91
2022-11-19T16:34:51.692Z,91495.34
2022-11-19T16:37:24.136Z,91489.56
2022-11-19T16:39:57.299Z,91489.31
2022-11-19T16:42:30.267Z,91505.63
2022-11-19T16:45:07.762Z,91498.50
2022-11-19T16:47:51.679Z,91490.28
2022-11-19T16:50:31.970Z,91493.31
2022-11-19T16:53:05.658Z,91500.69
2022-11-19T16:55:42.108Z,91505.34
2022-11-19T16:58:17.963Z,91501.19
2022-11-19T17:00:54.603Z,91501.78
2022-11-19T17:03:36.137Z,91514.34
2022-11-19T17:06:20.058Z,91516.97
2022-11-19T17:08:57.336Z,91536.06
2022-11-19T17:12:14.077Z,91517.66
2022-11-19T17:14:53.461Z,91520.78
2022-11-19T17:17:40.270Z,91522.66
2022-11-19T17:20:59.004Z,91521.22
2022-11-19T17:23:33.907Z,91521.28
2022-11-19T17:26:07.708Z,91526.56
2022-11-19T17:28:44.649Z,91520.03
2022-11-19T17:31:19.392Z,91510.44
2022-11-19T17:33:54.882Z,91514.75
2022-11-19T17:36:27.218Z,91506.63
2022-11-19T17:38:59.647Z,91507.97
2022-11-19T17:41:50.267Z,91510.84
2022-11-19T17:44:33.844Z,91525.28
2022-11-19T17:47:22.286Z,91511.97
2022-11-19T17:49:55.607Z,91514.44
2022-11-19T17:52:29.841Z,91516.34
2022-11-19T17:55:15.142Z,91507.38
2022-11-19T17:57:47.518Z,91511.78
2022-11-19T18:00:20.651Z,91519.66
2022-11-19T18:02:53.050Z,91513.47
2022-11-19T18:05:28.494Z,91512.63
2022-11-19T18:08:00.851Z,91515.78
2022-11-19T18:10:33.255Z,91517.97
2022-11-19T18:13:05.898Z,91512.03
2022-11-19T18:15:38.972Z,91516.25
2022-11-19T18:18:11.387Z,91519.66
2022-11-19T18:20:43.705Z,91515.41
2022-11-19T18:23:16.280Z,91486.03
2022-11-19T18:25:48.648Z,91510.00
2022-11-19T18:28:22.378Z,91517.03
2022-11-19T18:30:55.431Z,91507.81
2022-11-19T18:33:27.813Z,91518.97
2022-11-19T18:36:00.153Z,91516.69
2022-11-19T18:38:33.328Z,91515.50
2022-11-19T18:41:06.366Z,91514.41
2022-11-19T18:43:57.310Z,91515.16
2022-11-19T18:46:30.288Z,91515.94
2022-11-19T18:49:03.691Z,91508.38
2022-11-19T18:51:36.105Z,91498.03
2022-11-19T18:54:10.792Z,91501.78
2022-11-19T18:56:43.191Z,91497.78
2022-11-19T18:59:15.577Z,91501.00
2022-11-19T19:01:48.860Z,91492.63
2022-11-19T19:04:21.738Z,91492.38
2022-11-19T19:06:54.330Z,91494.63
2022-11-19T19:09:26.697Z,91491.38
2022-11-19T19:12:17.441Z,91509.75
2022-11-19T19:14:50.813Z,91492.28
2022-11-19T19:17:24.066Z,91502.41
2022-11-19T19:19:56.418Z,91493.19
2022-11-19T19:22:29.010Z,91508.13
2022-11-19T19:25:01.790Z,91509.63
2022-11-19T19:27:34.362Z,91519.69
2022-11-19T19:30:08.897Z,91520.16
2022-11-19T19:32:43.208Z,91503.53
2022-11-19T19:35:15.882Z,91497.25
2022-11-19T19:37:48.707Z,91493.72
2022-11-19T19:40:21.221Z,91492.44
2022-11-19T19:42:53.669Z,91497.09
2022-11-19T19:45:25.994Z,91488.03
2022-11-19T19:47:59.019Z,91471.63
2022-11-19T19:50:31.417Z,91485.00
2022-11-19T19:53:04.187Z,91479.31
2022-11-19T19:55:36.586Z,91480.66
2022-11-19T19:58:09.107Z,91477.47
2022-11-19T20:00:41.462Z,91459.22
2022-11-19T20:03:16.534Z,91465.69
2022-11-19T20:05:49.436Z,91451.53
2022-11-19T20:08:21.864Z,91462.84
2022-11-19T20:11:03.811Z,91465.13
2022-11-19T20:13:36.908Z,91454.06
2022-11-19T20:16:17.583Z,91452.97
2022-11-19T20:18:52.136Z,91450.94
2022-11-19T20:21:26.578Z,91453.31
2022-11-19T20:23:59.031Z,91454.16
2022-11-19T20:26:31.742Z,91460.50
2022-11-19T20:29:06.087Z,91446.53
2022-11-19T20:31:38.688Z,91435.09
2022-11-19T20:34:12.166Z,91457.13
2022-11-19T20:36:44.606Z,91449.25
2022-11-19T20:39:16.952Z,91457.63
2022-11-19T20:42:07.378Z,91440.91
2022-11-19T20:44:39.683Z,91432.22
2022-11-19T20:47:12.049Z,91438.56
2022-11-19T20:49:45.037Z,91436.56
2022-11-19T20:52:18.424Z,91441.63
2022-11-19T20:54:50.898Z,91443.69
2022-11-19T20:57:23.371Z,91439.00
2022-11-19T20:59:55.710Z,91444.66
2022-11-19T21:02:28.465Z,91426.22
2022-11-19T21:05:01.585Z,91438.13
2022-11-19T21:07:34.823Z,91427.81
2022-11-19T21:10:08.193Z,91426.22
2022-11-19T21:13:00.476Z,91434.00
2022-11-19T21:15:35.059Z,91434.16
2022-11-19T21:18:07.399Z,91421.47
2022-11-19T21:20:40.392Z,91421.63
2022-11-19T21:23:12.701Z,91424.78
2022-11-19T21:25:45.409Z,91421.75
2022-11-19T21:28:17.770Z,91419.88
2022-11-19T21:30:51.187Z,91417.25
2022-11-19T21:33:25.677Z,91410.66
2022-11-19T21:35:59.221Z,91418.53
2022-11-19T21:38:31.938Z,91409.81
2022-11-19T21:41:04.970Z,91421.06
2022-11-19T21:43:37.337Z,91406.00
2022-11-19T21:46:09.742Z,91405.31
2022-11-19T21:48:42.030Z,91409.63
2022-11-19T21:51:16.334Z,91423.94
2022-11-19T21:53:53.188Z,91393.03
2022-11-19T21:56:27.128Z,91391.53
2022-11-19T21:58:59.493Z,91412.00
2022-11-19T22:01:31.927Z,91408.50
2022-11-19T22:04:04.782Z,91411.66
2022-11-19T22:06:37.890Z,91394.22
2022-11-19T22:09:10.221Z,91395.34
2022-11-19T22:11:42.613Z,91401.44
2022-11-19T22:14:14.935Z,91401.00
2022-11-19T22:16:47.770Z,91396.56
2022-11-19T22:19:20.484Z,91396.81
2022-11-19T22:21:53.800Z,91393.25
2022-11-19T22:24:26.168Z,91392.31
2022-11-19T22:26:58.625Z,91385.59
2022-11-19T22:29:30.973Z,91373.66
2022-11-19T22:32:05.192Z,91362.09
2022-11-19T22:34:37.549Z,91363.06
2022-11-19T22:37:10.654Z,91359.88
2022-11-19T22:39:43.210Z,91366.97
2022-11-19T22:42:15.631Z,91358.09
2022-11-19T22:44:47.991Z,91377.13
2022-11-19T22:47:20.380Z,91399.94
2022-11-19T22:49:52.713Z,91387.47
2022-11-19T22:52:25.741Z,91382.03
2022-11-19T22:54:58.068Z,91390.41
2022-11-19T22:57:30.474Z,91382.63
2022-11-19T23:00:08.092Z,91375.34
2022-11-19T23:02:40.449Z,91377.97
2022-11-19T23:05:12.850Z,91394.06
2022-11-19T23:07:45.866Z,91389.41
2022-11-19T23:10:18.216Z,91389.41
2022-11-19T23:13:09.057Z,91383.13
2022-11-19T23:15:42.486Z,91365.44
2022-11-19T23:18:14.924Z,91381.88
2022-11-19T23:20:47.522Z,91379.16
2022-11-19T23:23:20.579Z,91381.19
2022-11-19T23:25:55.983Z,91384.81
2022-11-19T23:28:29.675Z,91384.09
2022-11-19T23:31:03.505Z,91375.94
2022-11-19T23:33:36.502Z,91382.13
2022-11-19T23:36:12.871Z,91380.16
2022-11-19T23:38:46.414Z,91369.69
2022-11-19T23:41:20.498Z,91363.47
2022-11-19T23:43:54.409Z,91360.25
2022-11-19T23:46:28.474Z,91340.84
2022-11-19T23:49:01.768Z,91355.00
2022-11-19T23:51:36.488Z,91348.75
2022-11-19T23:54:12.334Z,91351.28
2022-11-19T23:56:44.746Z,91348.66
2022-11-19T23:59:21.702Z,91349.66
